sensor_id;sensor_type;location;lat;lon;timestamp;P1;durP1;ratioP1;P2;durP2;ratioP2
70908;SDS011;58554;52.006;5.926;2024-02-21T00:00:35;21.67;;;7.22;;
70908;SDS011;58554;52.006;5.926;2024-02-21T00:03:02;22.38;;;7.72;;
70908;SDS011;58554;52.006;5.926;2024-02-21T00:05:29;19.40;;;7.93;;
70908;SDS011;58554;52.006;5.926;2024-02-21T00:07:55;21.83;;;7.10;;
70908;SDS011;58554;52.006;5.926;2024-02-21T00:10:24;17.60;;;6.72;;
70908;SDS011;58554;52.006;5.926;2024-02-21T00:12:51;17.52;;;7.07;;
70908;SDS011;58554;52.006;5.926;2024-02-21T00:15:17;20.57;;;7.07;;
70908;SDS011;58554;52.006;5.926;2024-02-21T00:17:47;21.63;;;8.07;;
70908;SDS011;58554;52.006;5.926;2024-02-21T00:20:13;18.10;;;7.07;;
70908;SDS011;58554;52.006;5.926;2024-02-21T00:22:40;18.05;;;6.88;;
70908;SDS011;58554;52.006;5.926;2024-02-21T00:25:07;16.02;;;7.30;;
70908;SDS011;58554;52.006;5.926;2024-02-21T00:27:34;18.97;;;7.17;;
70908;SDS011;58554;52.006;5.926;2024-02-21T00:30:00;20.33;;;7.57;;
70908;SDS011;58554;52.006;5.926;2024-02-21T00:32:27;16.33;;;7.00;;
70908;SDS011;58554;52.006;5.926;2024-02-21T00:34:57;17.40;;;6.75;;
70908;SDS011;58554;52.006;5.926;2024-02-21T00:37:23;19.20;;;7.20;;
70908;SDS011;58554;52.006;5.926;2024-02-21T00:39:50;17.38;;;7.30;;
70908;SDS011;58554;52.006;5.926;2024-02-21T00:42:16;16.57;;;7.53;;
70908;SDS011;58554;52.006;5.926;2024-02-21T00:44:44;20.20;;;7.40;;
70908;SDS011;58554;52.006;5.926;2024-02-21T00:47:10;20.80;;;7.50;;
70908;SDS011;58554;52.006;5.926;2024-02-21T00:49:37;19.85;;;7.78;;
70908;SDS011;58554;52.006;5.926;2024-02-21T00:52:06;19.42;;;7.18;;
70908;SDS011;58554;52.006;5.926;2024-02-21T00:54:32;19.30;;;7.60;;
70908;SDS011;58554;52.006;5.926;2024-02-21T00:56:59;25.70;;;7.87;;
70908;SDS011;58554;52.006;5.926;2024-02-21T00:59:26;16.27;;;7.40;;
70908;SDS011;58554;52.006;5.926;2024-02-21T01:01:52;20.08;;;7.57;;
70908;SDS011;58554;52.006;5.926;2024-02-21T01:04:19;21.40;;;7.53;;
70908;SDS011;58554;52.006;5.926;2024-02-21T01:06:45;22.02;;;6.85;;
70908;SDS011;58554;52.006;5.926;2024-02-21T01:09:14;22.13;;;6.73;;
70908;SDS011;58554;52.006;5.926;2024-02-21T01:11:41;20.10;;;7.30;;
70908;SDS011;58554;52.006;5.926;2024-02-21T01:14:07;20.60;;;7.30;;
70908;SDS011;58554;52.006;5.926;2024-02-21T01:16:34;17.23;;;6.72;;
70908;SDS011;58554;52.006;5.926;2024-02-21T01:19:00;19.45;;;7.53;;
70908;SDS011;58554;52.006;5.926;2024-02-21T01:21:27;18.03;;;6.40;;
70908;SDS011;58554;52.006;5.926;2024-02-21T01:23:53;17.17;;;7.00;;
70908;SDS011;58554;52.006;5.926;2024-02-21T01:26:22;19.73;;;7.28;;
70908;SDS011;58554;52.006;5.926;2024-02-21T01:28:49;14.70;;;6.68;;
70908;SDS011;58554;52.006;5.926;2024-02-21T01:31:15;18.15;;;7.03;;
70908;SDS011;58554;52.006;5.926;2024-02-21T01:33:45;19.40;;;7.25;;
70908;SDS011;58554;52.006;5.926;2024-02-21T01:36:11;19.73;;;7.30;;
70908;SDS011;58554;52.006;5.926;2024-02-21T01:38:38;16.90;;;6.63;;
70908;SDS011;58554;52.006;5.926;2024-02-21T01:41:04;18.33;;;7.28;;
70908;SDS011;58554;52.006;5.926;2024-02-21T01:43:33;19.67;;;6.53;;
70908;SDS011;58554;52.006;5.926;2024-02-21T01:46:00;15.03;;;6.93;;
70908;SDS011;58554;52.006;5.926;2024-02-21T01:48:27;16.57;;;7.20;;
70908;SDS011;58554;52.006;5.926;2024-02-21T01:50:54;14.00;;;6.43;;
70908;SDS011;58554;52.006;5.926;2024-02-21T01:53:23;14.37;;;6.33;;
70908;SDS011;58554;52.006;5.926;2024-02-21T01:55:56;17.67;;;6.50;;
70908;SDS011;58554;52.006;5.926;2024-02-21T01:58:23;18.17;;;6.85;;
70908;SDS011;58554;52.006;5.926;2024-02-21T02:00:53;20.37;;;7.00;;
70908;SDS011;58554;52.006;5.926;2024-02-21T02:03:23;21.23;;;6.83;;
70908;SDS011;58554;52.006;5.926;2024-02-21T02:05:50;18.90;;;6.60;;
70908;SDS011;58554;52.006;5.926;2024-02-21T02:08:17;20.03;;;6.77;;
70908;SDS011;58554;52.006;5.926;2024-02-21T02:10:46;18.85;;;6.85;;
70908;SDS011;58554;52.006;5.926;2024-02-21T02:13:12;17.67;;;6.80;;
70908;SDS011;58554;52.006;5.926;2024-02-21T02:15:39;16.13;;;6.63;;
70908;SDS011;58554;52.006;5.926;2024-02-21T02:18:10;18.97;;;6.73;;
70908;SDS011;58554;52.006;5.926;2024-02-21T02:20:38;16.20;;;6.20;;
70908;SDS011;58554;52.006;5.926;2024-02-21T02:23:06;19.73;;;7.25;;
70908;SDS011;58554;52.006;5.926;2024-02-21T02:25:39;16.20;;;6.90;;
70908;SDS011;58554;52.006;5.926;2024-02-21T02:28:06;15.40;;;6.80;;
70908;SDS011;58554;52.006;5.926;2024-02-21T02:30:33;18.15;;;7.05;;
70908;SDS011;58554;52.006;5.926;2024-02-21T02:33:00;19.63;;;6.63;;
70908;SDS011;58554;52.006;5.926;2024-02-21T02:35:27;20.73;;;6.45;;
70908;SDS011;58554;52.006;5.926;2024-02-21T02:37:53;17.48;;;6.95;;
70908;SDS011;58554;52.006;5.926;2024-02-21T02:40:20;16.52;;;6.57;;
70908;SDS011;58554;52.006;5.926;2024-02-21T02:42:49;15.13;;;7.00;;
70908;SDS011;58554;52.006;5.926;2024-02-21T02:45:16;16.55;;;6.60;;
70908;SDS011;58554;52.006;5.926;2024-02-21T02:47:43;19.02;;;7.20;;
70908;SDS011;58554;52.006;5.926;2024-02-21T02:50:11;14.10;;;6.70;;
70908;SDS011;58554;52.006;5.926;2024-02-21T02:52:38;17.20;;;6.80;;
70908;SDS011;58554;52.006;5.926;2024-02-21T02:55:05;17.45;;;7.03;;
70908;SDS011;58554;52.006;5.926;2024-02-21T02:57:33;20.50;;;7.47;;
70908;SDS011;58554;52.006;5.926;2024-02-21T03:00:02;15.93;;;6.72;;
70908;SDS011;58554;52.006;5.926;2024-02-21T03:02:30;17.13;;;6.57;;
70908;SDS011;58554;52.006;5.926;2024-02-21T03:04:57;16.87;;;6.80;;
70908;SDS011;58554;52.006;5.926;2024-02-21T03:07:24;18.10;;;6.73;;
70908;SDS011;58554;52.006;5.926;2024-02-21T03:09:51;13.98;;;6.80;;
70908;SDS011;58554;52.006;5.926;2024-02-21T03:12:17;16.13;;;6.22;;
70908;SDS011;58554;52.006;5.926;2024-02-21T03:14:44;14.75;;;6.38;;
70908;SDS011;58554;52.006;5.926;2024-02-21T03:17:13;21.43;;;7.03;;
70908;SDS011;58554;52.006;5.926;2024-02-21T03:19:40;18.43;;;6.53;;
70908;SDS011;58554;52.006;5.926;2024-02-21T03:22:06;17.08;;;7.18;;
70908;SDS011;58554;52.006;5.926;2024-02-21T03:24:33;14.52;;;6.70;;
70908;SDS011;58554;52.006;5.926;2024-02-21T03:26:59;16.33;;;6.80;;
70908;SDS011;58554;52.006;5.926;2024-02-21T03:29:26;18.37;;;7.37;;
70908;SDS011;58554;52.006;5.926;2024-02-21T03:31:52;16.63;;;5.73;;
70908;SDS011;58554;52.006;5.926;2024-02-21T03:34:22;17.43;;;6.07;;
70908;SDS011;58554;52.006;5.926;2024-02-21T03:36:48;19.03;;;6.30;;
70908;SDS011;58554;52.006;5.926;2024-02-21T03:39:14;14.17;;;6.27;;
70908;SDS011;58554;52.006;5.926;2024-02-21T03:41:41;17.73;;;6.55;;
70908;SDS011;58554;52.006;5.926;2024-02-21T03:44:07;14.82;;;6.35;;
70908;SDS011;58554;52.006;5.926;2024-02-21T03:46:34;16.37;;;6.40;;
70908;SDS011;58554;52.006;5.926;2024-02-21T03:49:01;19.60;;;6.70;;
70908;SDS011;58554;52.006;5.926;2024-02-21T03:51:30;15.13;;;5.93;;
70908;SDS011;58554;52.006;5.926;2024-02-21T03:53:56;15.75;;;6.15;;
70908;SDS011;58554;52.006;5.926;2024-02-21T03:56:23;15.55;;;6.50;;
70908;SDS011;58554;52.006;5.926;2024-02-21T03:58:49;17.53;;;6.00;;
70908;SDS011;58554;52.006;5.926;2024-02-21T04:01:16;16.90;;;6.77;;
70908;SDS011;58554;52.006;5.926;2024-02-21T04:03:42;14.60;;;6.15;;
70908;SDS011;58554;52.006;5.926;2024-02-21T04:06:10;16.60;;;6.37;;
70908;SDS011;58554;52.006;5.926;2024-02-21T04:08:39;13.77;;;5.63;;
70908;SDS011;58554;52.006;5.926;2024-02-21T04:11:05;20.70;;;5.55;;
70908;SDS011;58554;52.006;5.926;2024-02-21T04:13:32;13.27;;;5.57;;
70908;SDS011;58554;52.006;5.926;2024-02-21T04:15:58;13.88;;;6.00;;
70908;SDS011;58554;52.006;5.926;2024-02-21T04:18:25;14.43;;;6.13;;
70908;SDS011;58554;52.006;5.926;2024-02-21T04:20:51;15.37;;;5.83;;
70908;SDS011;58554;52.006;5.926;2024-02-21T04:23:18;15.50;;;5.43;;
70908;SDS011;58554;52.006;5.926;2024-02-21T04:25:47;11.07;;;5.15;;
70908;SDS011;58554;52.006;5.926;2024-02-21T04:28:13;12.95;;;5.57;;
70908;SDS011;58554;52.006;5.926;2024-02-21T04:30:40;14.13;;;5.28;;
70908;SDS011;58554;52.006;5.926;2024-02-21T04:33:06;13.93;;;5.43;;
70908;SDS011;58554;52.006;5.926;2024-02-21T04:35:33;12.13;;;4.95;;
70908;SDS011;58554;52.006;5.926;2024-02-21T04:38:02;12.55;;;5.13;;
70908;SDS011;58554;52.006;5.926;2024-02-21T04:40:28;13.23;;;5.33;;
70908;SDS011;58554;52.006;5.926;2024-02-21T04:42:58;14.07;;;5.07;;
70908;SDS011;58554;52.006;5.926;2024-02-21T04:45:24;14.38;;;5.13;;
70908;SDS011;58554;52.006;5.926;2024-02-21T04:47:51;13.38;;;5.57;;
70908;SDS011;58554;52.006;5.926;2024-02-21T04:50:17;11.02;;;4.28;;
70908;SDS011;58554;52.006;5.926;2024-02-21T04:52:44;13.63;;;4.63;;
70908;SDS011;58554;52.006;5.926;2024-02-21T04:55:10;13.63;;;4.63;;
70908;SDS011;58554;52.006;5.926;2024-02-21T04:57:37;14.38;;;4.60;;
70908;SDS011;58554;52.006;5.926;2024-02-21T05:00:07;13.20;;;4.57;;
70908;SDS011;58554;52.006;5.926;2024-02-21T05:02:34;9.80;;;4.20;;
70908;SDS011;58554;52.006;5.926;2024-02-21T05:05:01;12.90;;;4.38;;
70908;SDS011;58554;52.006;5.926;2024-02-21T05:07:27;10.43;;;4.80;;
70908;SDS011;58554;52.006;5.926;2024-02-21T05:09:54;10.73;;;4.00;;
70908;SDS011;58554;52.006;5.926;2024-02-21T05:12:20;12.02;;;4.72;;
70908;SDS011;58554;52.006;5.926;2024-02-21T05:14:47;13.53;;;4.83;;
70908;SDS011;58554;52.006;5.926;2024-02-21T05:17:16;10.05;;;4.70;;
70908;SDS011;58554;52.006;5.926;2024-02-21T05:19:42;12.05;;;4.40;;
70908;SDS011;58554;52.006;5.926;2024-02-21T05:22:09;11.68;;;4.60;;
70908;SDS011;58554;52.006;5.926;2024-02-21T05:24:35;11.03;;;4.47;;
70908;SDS011;58554;52.006;5.926;2024-02-21T05:27:02;13.75;;;4.97;;
70908;SDS011;58554;52.006;5.926;2024-02-21T05:29:29;13.10;;;5.32;;
70908;SDS011;58554;52.006;5.926;2024-02-21T05:31:56;10.93;;;4.88;;
70908;SDS011;58554;52.006;5.926;2024-02-21T05:34:29;11.70;;;5.15;;
70908;SDS011;58554;52.006;5.926;2024-02-21T05:36:55;13.10;;;5.23;;
70908;SDS011;58554;52.006;5.926;2024-02-21T05:39:22;12.23;;;4.90;;
70908;SDS011;58554;52.006;5.926;2024-02-21T05:41:48;14.93;;;5.07;;
70908;SDS011;58554;52.006;5.926;2024-02-21T05:44:15;14.32;;;5.18;;
70908;SDS011;58554;52.006;5.926;2024-02-21T05:46:42;11.68;;;5.60;;
70908;SDS011;58554;52.006;5.926;2024-02-21T05:49:08;12.43;;;5.75;;
70908;SDS011;58554;52.006;5.926;2024-02-21T05:51:38;12.80;;;5.50;;
70908;SDS011;58554;52.006;5.926;2024-02-21T05:54:04;17.67;;;5.93;;
70908;SDS011;58554;52.006;5.926;2024-02-21T05:56:31;16.10;;;6.10;;
70908;SDS011;58554;52.006;5.926;2024-02-21T05:58:57;16.37;;;6.20;;
70908;SDS011;58554;52.006;5.926;2024-02-21T06:01:24;12.90;;;5.83;;
70908;SDS011;58554;52.006;5.926;2024-02-21T06:03:51;14.63;;;5.83;;
70908;SDS011;58554;52.006;5.926;2024-02-21T06:06:18;15.80;;;6.27;;
70908;SDS011;58554;52.006;5.926;2024-02-21T06:08:47;15.75;;;5.93;;
70908;SDS011;58554;52.006;5.926;2024-02-21T06:11:13;14.10;;;5.60;;
70908;SDS011;58554;52.006;5.926;2024-02-21T06:13:40;19.83;;;6.63;;
70908;SDS011;58554;52.006;5.926;2024-02-21T06:16:06;13.93;;;6.05;;
70908;SDS011;58554;52.006;5.926;2024-02-21T06:18:34;17.17;;;6.10;;
70908;SDS011;58554;52.006;5.926;2024-02-21T06:21:02;14.85;;;5.85;;
70908;SDS011;58554;52.006;5.926;2024-02-21T06:23:29;15.53;;;5.57;;
70908;SDS011;58554;52.006;5.926;2024-02-21T06:25:58;12.20;;;5.65;;
70908;SDS011;58554;52.006;5.926;2024-02-21T06:28:25;14.20;;;6.10;;
70908;SDS011;58554;52.006;5.926;2024-02-21T06:30:51;14.75;;;6.00;;
70908;SDS011;58554;52.006;5.926;2024-02-21T06:33:18;14.70;;;4.97;;
70908;SDS011;58554;52.006;5.926;2024-02-21T06:35:45;12.53;;;6.20;;
70908;SDS011;58554;52.006;5.926;2024-02-21T06:38:11;13.18;;;5.85;;
70908;SDS011;58554;52.006;5.926;2024-02-21T06:40:38;11.63;;;5.10;;
70908;SDS011;58554;52.006;5.926;2024-02-21T06:43:07;16.40;;;5.83;;
70908;SDS011;58554;52.006;5.926;2024-02-21T06:45:33;15.30;;;4.95;;
70908;SDS011;58554;52.006;5.926;2024-02-21T06:48:00;11.10;;;4.67;;
70908;SDS011;58554;52.006;5.926;2024-02-21T06:50:28;13.30;;;5.23;;
70908;SDS011;58554;52.006;5.926;2024-02-21T06:52:54;14.20;;;5.22;;
70908;SDS011;58554;52.006;5.926;2024-02-21T06:55:21;9.93;;;4.43;;
70908;SDS011;58554;52.006;5.926;2024-02-21T06:57:47;11.60;;;4.70;;
70908;SDS011;58554;52.006;5.926;2024-02-21T07:00:17;11.73;;;4.35;;
70908;SDS011;58554;52.006;5.926;2024-02-21T07:02:44;9.87;;;4.50;;
70908;SDS011;58554;52.006;5.926;2024-02-21T07:05:11;12.05;;;5.22;;
70908;SDS011;58554;52.006;5.926;2024-02-21T07:07:37;11.80;;;5.17;;
70908;SDS011;58554;52.006;5.926;2024-02-21T07:10:04;10.43;;;4.68;;
70908;SDS011;58554;52.006;5.926;2024-02-21T07:12:32;14.70;;;4.63;;
70908;SDS011;58554;52.006;5.926;2024-02-21T07:14:58;10.65;;;4.63;;
70908;SDS011;58554;52.006;5.926;2024-02-21T07:17:27;13.43;;;4.97;;
70908;SDS011;58554;52.006;5.926;2024-02-21T07:19:54;10.98;;;4.78;;
70908;SDS011;58554;52.006;5.926;2024-02-21T07:22:20;11.13;;;4.67;;
70908;SDS011;58554;52.006;5.926;2024-02-21T07:24:47;12.82;;;4.95;;
70908;SDS011;58554;52.006;5.926;2024-02-21T07:27:14;10.00;;;4.53;;
70908;SDS011;58554;52.006;5.926;2024-02-21T07:29:41;11.57;;;4.38;;
70908;SDS011;58554;52.006;5.926;2024-02-21T07:32:08;10.60;;;4.77;;
70908;SDS011;58554;52.006;5.926;2024-02-21T07:34:37;12.05;;;4.60;;
70908;SDS011;58554;52.006;5.926;2024-02-21T07:37:03;11.50;;;4.87;;
70908;SDS011;58554;52.006;5.926;2024-02-21T07:39:30;12.43;;;5.43;;
70908;SDS011;58554;52.006;5.926;2024-02-21T07:41:56;12.13;;;5.07;;
70908;SDS011;58554;52.006;5.926;2024-02-21T07:44:23;11.02;;;4.50;;
70908;SDS011;58554;52.006;5.926;2024-02-21T07:46:49;14.37;;;4.97;;
70908;SDS011;58554;52.006;5.926;2024-02-21T07:49:16;13.85;;;4.90;;
70908;SDS011;58554;52.006;5.926;2024-02-21T07:51:45;11.33;;;4.57;;
70908;SDS011;58554;52.006;5.926;2024-02-21T07:54:11;10.77;;;4.82;;
70908;SDS011;58554;52.006;5.926;2024-02-21T07:56:38;11.23;;;4.77;;
70908;SDS011;58554;52.006;5.926;2024-02-21T07:59:05;11.60;;;4.97;;
70908;SDS011;58554;52.006;5.926;2024-02-21T08:01:31;11.93;;;4.80;;
70908;SDS011;58554;52.006;5.926;2024-02-21T08:06:57;12.13;;;5.03;;
70908;SDS011;58554;52.006;5.926;2024-02-21T08:09:23;13.57;;;5.28;;
70908;SDS011;58554;52.006;5.926;2024-02-21T08:11:50;14.60;;;5.10;;
70908;SDS011;58554;52.006;5.926;2024-02-21T08:14:16;12.20;;;4.50;;
70908;SDS011;58554;52.006;5.926;2024-02-21T08:16:43;13.03;;;4.97;;
70908;SDS011;58554;52.006;5.926;2024-02-21T08:19:10;12.82;;;4.97;;
70908;SDS011;58554;52.006;5.926;2024-02-21T08:21:37;12.53;;;5.07;;
70908;SDS011;58554;52.006;5.926;2024-02-21T08:24:06;10.73;;;5.27;;
70908;SDS011;58554;52.006;5.926;2024-02-21T08:26:33;13.63;;;5.07;;
70908;SDS011;58554;52.006;5.926;2024-02-21T08:28:59;14.67;;;5.30;;
70908;SDS011;58554;52.006;5.926;2024-02-21T08:31:26;10.73;;;4.90;;
70908;SDS011;58554;52.006;5.926;2024-02-21T08:33:53;12.80;;;5.33;;
70908;SDS011;58554;52.006;5.926;2024-02-21T08:36:19;14.90;;;5.13;;
70908;SDS011;58554;52.006;5.926;2024-02-21T08:38:46;11.30;;;5.30;;
70908;SDS011;58554;52.006;5.926;2024-02-21T08:41:15;14.95;;;5.78;;
70908;SDS011;58554;52.006;5.926;2024-02-21T08:43:42;13.75;;;5.50;;
70908;SDS011;58554;52.006;5.926;2024-02-21T08:46:08;12.35;;;5.25;;
70908;SDS011;58554;52.006;5.926;2024-02-21T08:48:35;10.70;;;5.40;;
70908;SDS011;58554;52.006;5.926;2024-02-21T08:51:01;12.43;;;5.20;;
70908;SDS011;58554;52.006;5.926;2024-02-21T08:53:28;12.10;;;5.32;;
70908;SDS011;58554;52.006;5.926;2024-02-21T08:55:55;14.25;;;5.47;;
70908;SDS011;58554;52.006;5.926;2024-02-21T08:58:24;12.15;;;4.97;;
70908;SDS011;58554;52.006;5.926;2024-02-21T09:00:50;12.07;;;5.57;;
70908;SDS011;58554;52.006;5.926;2024-02-21T09:03:17;13.55;;;5.22;;
70908;SDS011;58554;52.006;5.926;2024-02-21T09:05:43;16.00;;;5.43;;
70908;SDS011;58554;52.006;5.926;2024-02-21T09:08:10;9.80;;;4.90;;
70908;SDS011;58554;52.006;5.926;2024-02-21T09:10:36;11.83;;;4.87;;
70908;SDS011;58554;52.006;5.926;2024-02-21T09:13:03;12.77;;;4.70;;
70908;SDS011;58554;52.006;5.926;2024-02-21T09:15:35;15.52;;;5.03;;
70908;SDS011;58554;52.006;5.926;2024-02-21T09:18:02;11.98;;;5.20;;
70908;SDS011;58554;52.006;5.926;2024-02-21T09:20:29;11.45;;;5.22;;
70908;SDS011;58554;52.006;5.926;2024-02-21T09:22:56;11.57;;;4.93;;
70908;SDS011;58554;52.006;5.926;2024-02-21T09:25:22;14.80;;;4.60;;
70908;SDS011;58554;52.006;5.926;2024-02-21T09:27:49;16.83;;;4.85;;
70908;SDS011;58554;52.006;5.926;2024-02-21T09:30:16;12.23;;;5.17;;
70908;SDS011;58554;52.006;5.926;2024-02-21T09:32:45;11.93;;;5.15;;
70908;SDS011;58554;52.006;5.926;2024-02-21T09:35:12;11.80;;;4.90;;
70908;SDS011;58554;52.006;5.926;2024-02-21T09:37:39;10.43;;;4.70;;
70908;SDS011;58554;52.006;5.926;2024-02-21T09:40:09;11.07;;;4.95;;
70908;SDS011;58554;52.006;5.926;2024-02-21T09:42:37;9.60;;;4.35;;
70908;SDS011;58554;52.006;5.926;2024-02-21T09:45:07;13.43;;;4.68;;
70908;SDS011;58554;52.006;5.926;2024-02-21T09:47:50;12.45;;;4.50;;
70908;SDS011;58554;52.006;5.926;2024-02-21T09:50:40;10.75;;;4.60;;
70908;SDS011;58554;52.006;5.926;2024-02-21T09:53:09;10.02;;;4.43;;
70908;SDS011;58554;52.006;5.926;2024-02-21T09:55:40;12.70;;;4.85;;
70908;SDS011;58554;52.006;5.926;2024-02-21T09:58:08;10.63;;;4.27;;
70908;SDS011;58554;52.006;5.926;2024-02-21T10:00:36;12.98;;;4.45;;
70908;SDS011;58554;52.006;5.926;2024-02-21T10:03:05;10.80;;;4.63;;
70908;SDS011;58554;52.006;5.926;2024-02-21T10:05:32;11.05;;;4.25;;
70908;SDS011;58554;52.006;5.926;2024-02-21T10:07:59;10.50;;;4.57;;
70908;SDS011;58554;52.006;5.926;2024-02-21T10:10:26;11.60;;;4.72;;
70908;SDS011;58554;52.006;5.926;2024-02-21T10:12:53;11.70;;;4.38;;
70908;SDS011;58554;52.006;5.926;2024-02-21T10:15:20;10.00;;;4.30;;
70908;SDS011;58554;52.006;5.926;2024-02-21T10:17:47;10.95;;;4.10;;
70908;SDS011;58554;52.006;5.926;2024-02-21T10:20:17;10.35;;;4.35;;
70908;SDS011;58554;52.006;5.926;2024-02-21T10:22:43;12.43;;;4.00;;
70908;SDS011;58554;52.006;5.926;2024-02-21T10:25:10;9.73;;;4.27;;
70908;SDS011;58554;52.006;5.926;2024-02-21T10:27:38;9.03;;;3.97;;
70908;SDS011;58554;52.006;5.926;2024-02-21T10:30:06;8.38;;;4.28;;
70908;SDS011;58554;52.006;5.926;2024-02-21T10:32:48;10.57;;;4.43;;
70908;SDS011;58554;52.006;5.926;2024-02-21T10:35:24;10.00;;;3.60;;
70908;SDS011;58554;52.006;5.926;2024-02-21T10:37:52;9.98;;;3.90;;
70908;SDS011;58554;52.006;5.926;2024-02-21T10:40:19;11.45;;;4.20;;
70908;SDS011;58554;52.006;5.926;2024-02-21T10:42:46;7.88;;;3.63;;
70908;SDS011;58554;52.006;5.926;2024-02-21T10:45:16;10.30;;;4.15;;
70908;SDS011;58554;52.006;5.926;2024-02-21T10:47:44;8.07;;;3.50;;
70908;SDS011;58554;52.006;5.926;2024-02-21T10:50:24;6.78;;;3.58;;
70908;SDS011;58554;52.006;5.926;2024-02-21T10:53:00;8.37;;;3.40;;
70908;SDS011;58554;52.006;5.926;2024-02-21T10:55:37;8.17;;;3.50;;
70908;SDS011;58554;52.006;5.926;2024-02-21T10:58:13;6.83;;;3.30;;
70908;SDS011;58554;52.006;5.926;2024-02-21T11:00:40;6.55;;;3.38;;
70908;SDS011;58554;52.006;5.926;2024-02-21T11:03:07;8.17;;;3.57;;
70908;SDS011;58554;52.006;5.926;2024-02-21T11:05:37;8.20;;;3.47;;
70908;SDS011;58554;52.006;5.926;2024-02-21T11:08:05;7.72;;;3.25;;
70908;SDS011;58554;52.006;5.926;2024-02-21T11:10:32;11.07;;;4.05;;
70908;SDS011;58554;52.006;5.926;2024-02-21T11:13:06;9.13;;;4.38;;
70908;SDS011;58554;52.006;5.926;2024-02-21T11:15:33;11.47;;;4.23;;
70908;SDS011;58554;52.006;5.926;2024-02-21T11:17:59;9.63;;;4.50;;
70908;SDS011;58554;52.006;5.926;2024-02-21T11:20:35;11.77;;;4.50;;
70908;SDS011;58554;52.006;5.926;2024-02-21T11:23:04;9.05;;;4.65;;
70908;SDS011;58554;52.006;5.926;2024-02-21T11:25:31;9.88;;;4.70;;
70908;SDS011;58554;52.006;5.926;2024-02-21T11:28:01;9.57;;;4.22;;
70908;SDS011;58554;52.006;5.926;2024-02-21T11:30:29;8.38;;;4.32;;
70908;SDS011;58554;52.006;5.926;2024-02-21T11:33:00;8.77;;;4.50;;
70908;SDS011;58554;52.006;5.926;2024-02-21T11:35:31;11.68;;;4.93;;
70908;SDS011;58554;52.006;5.926;2024-02-21T11:38:11;10.50;;;4.55;;
70908;SDS011;58554;52.006;5.926;2024-02-21T11:40:39;11.88;;;4.45;;
70908;SDS011;58554;52.006;5.926;2024-02-21T11:43:06;10.83;;;4.80;;
70908;SDS011;58554;52.006;5.926;2024-02-21T11:45:33;10.50;;;4.40;;
70908;SDS011;58554;52.006;5.926;2024-02-21T11:47:59;12.23;;;4.85;;
70908;SDS011;58554;52.006;5.926;2024-02-21T11:50:26;9.88;;;4.43;;
70908;SDS011;58554;52.006;5.926;2024-02-21T11:52:54;10.90;;;4.10;;
70908;SDS011;58554;52.006;5.926;2024-02-21T11:55:24;9.77;;;4.28;;
70908;SDS011;58554;52.006;5.926;2024-02-21T11:57:50;10.93;;;4.63;;
70908;SDS011;58554;52.006;5.926;2024-02-21T12:00:17;9.57;;;4.20;;
70908;SDS011;58554;52.006;5.926;2024-02-21T12:02:45;9.00;;;3.85;;
70908;SDS011;58554;52.006;5.926;2024-02-21T12:05:13;9.90;;;4.37;;
70908;SDS011;58554;52.006;5.926;2024-02-21T12:07:40;10.15;;;4.00;;
70908;SDS011;58554;52.006;5.926;2024-02-21T12:10:08;9.07;;;4.07;;
70908;SDS011;58554;52.006;5.926;2024-02-21T12:12:38;9.50;;;4.20;;
70908;SDS011;58554;52.006;5.926;2024-02-21T12:15:06;8.77;;;4.15;;
70908;SDS011;58554;52.006;5.926;2024-02-21T12:17:34;7.40;;;3.97;;
70908;SDS011;58554;52.006;5.926;2024-02-21T12:20:04;12.63;;;4.68;;
70908;SDS011;58554;52.006;5.926;2024-02-21T12:22:32;12.50;;;4.57;;
70908;SDS011;58554;52.006;5.926;2024-02-21T12:24:59;10.90;;;4.23;;
70908;SDS011;58554;52.006;5.926;2024-02-21T12:27:30;10.90;;;4.53;;
70908;SDS011;58554;52.006;5.926;2024-02-21T12:29:59;12.15;;;4.90;;
70908;SDS011;58554;52.006;5.926;2024-02-21T12:32:26;8.52;;;3.67;;
70908;SDS011;58554;52.006;5.926;2024-02-21T12:34:52;11.60;;;4.30;;
70908;SDS011;58554;52.006;5.926;2024-02-21T12:37:19;8.20;;;4.30;;
70908;SDS011;58554;52.006;5.926;2024-02-21T12:39:45;9.40;;;4.20;;
70908;SDS011;58554;52.006;5.926;2024-02-21T12:42:12;9.30;;;4.60;;
70908;SDS011;58554;52.006;5.926;2024-02-21T12:44:38;8.32;;;4.03;;
70908;SDS011;58554;52.006;5.926;2024-02-21T12:47:07;9.65;;;4.43;;
70908;SDS011;58554;52.006;5.926;2024-02-21T12:49:34;11.35;;;4.65;;
70908;SDS011;58554;52.006;5.926;2024-02-21T12:52:00;8.63;;;4.18;;
70908;SDS011;58554;52.006;5.926;2024-02-21T12:54:27;9.07;;;4.53;;
70908;SDS011;58554;52.006;5.926;2024-02-21T12:56:54;14.10;;;4.60;;
70908;SDS011;58554;52.006;5.926;2024-02-21T12:59:20;10.80;;;5.05;;
70908;SDS011;58554;52.006;5.926;2024-02-21T13:01:47;8.13;;;4.10;;
70908;SDS011;58554;52.006;5.926;2024-02-21T13:04:16;9.43;;;4.60;;
70908;SDS011;58554;52.006;5.926;2024-02-21T13:06:42;8.60;;;4.05;;
70908;SDS011;58554;52.006;5.926;2024-02-21T13:09:09;8.85;;;4.50;;
70908;SDS011;58554;52.006;5.926;2024-02-21T13:11:35;8.93;;;4.17;;
70908;SDS011;58554;52.006;5.926;2024-02-21T13:14:02;8.75;;;4.55;;
70908;SDS011;58554;52.006;5.926;2024-02-21T13:16:29;9.80;;;4.50;;
70908;SDS011;58554;52.006;5.926;2024-02-21T13:18:55;11.00;;;4.38;;
70908;SDS011;58554;52.006;5.926;2024-02-21T13:21:24;10.20;;;3.90;;
70908;SDS011;58554;52.006;5.926;2024-02-21T13:23:51;8.07;;;4.43;;
70908;SDS011;58554;52.006;5.926;2024-02-21T13:26:17;11.35;;;4.57;;
70908;SDS011;58554;52.006;5.926;2024-02-21T13:28:44;9.87;;;4.63;;
70908;SDS011;58554;52.006;5.926;2024-02-21T13:31:10;9.88;;;4.22;;
70908;SDS011;58554;52.006;5.926;2024-02-21T13:33:37;10.03;;;4.77;;
70908;SDS011;58554;52.006;5.926;2024-02-21T13:36:04;9.37;;;4.43;;
70908;SDS011;58554;52.006;5.926;2024-02-21T13:38:34;10.80;;;4.70;;
70908;SDS011;58554;52.006;5.926;2024-02-21T13:41:00;9.30;;;4.10;;
70908;SDS011;58554;52.006;5.926;2024-02-21T13:43:27;8.10;;;3.85;;
70908;SDS011;58554;52.006;5.926;2024-02-21T13:45:56;10.83;;;4.67;;
70908;SDS011;58554;52.006;5.926;2024-02-21T13:48:25;13.27;;;4.40;;
70908;SDS011;58554;52.006;5.926;2024-02-21T13:50:52;10.53;;;4.60;;
70908;SDS011;58554;52.006;5.926;2024-02-21T13:53:18;10.80;;;4.33;;
70908;SDS011;58554;52.006;5.926;2024-02-21T13:55:47;8.88;;;4.07;;
70908;SDS011;58554;52.006;5.926;2024-02-21T13:58:17;8.07;;;4.00;;
70908;SDS011;58554;52.006;5.926;2024-02-21T14:00:43;8.98;;;4.38;;
70908;SDS011;58554;52.006;5.926;2024-02-21T14:03:10;9.47;;;4.40;;
70908;SDS011;58554;52.006;5.926;2024-02-21T14:05:36;8.40;;;3.90;;
70908;SDS011;58554;52.006;5.926;2024-02-21T14:08:03;11.20;;;4.20;;
70908;SDS011;58554;52.006;5.926;2024-02-21T14:10:31;9.73;;;3.72;;
70908;SDS011;58554;52.006;5.926;2024-02-21T14:13:00;8.40;;;3.50;;
70908;SDS011;58554;52.006;5.926;2024-02-21T14:15:27;9.17;;;3.77;;
70908;SDS011;58554;52.006;5.926;2024-02-21T14:17:53;7.22;;;3.75;;
70908;SDS011;58554;52.006;5.926;2024-02-21T14:20:20;7.93;;;3.73;;
70908;SDS011;58554;52.006;5.926;2024-02-21T14:22:46;9.85;;;4.10;;
70908;SDS011;58554;52.006;5.926;2024-02-21T14:25:13;8.17;;;4.00;;
70908;SDS011;58554;52.006;5.926;2024-02-21T14:27:39;10.02;;;3.65;;
70908;SDS011;58554;52.006;5.926;2024-02-21T14:30:09;11.70;;;4.00;;
70908;SDS011;58554;52.006;5.926;2024-02-21T14:32:36;6.30;;;3.33;;
70908;SDS011;58554;52.006;5.926;2024-02-21T14:35:02;8.03;;;3.33;;
70908;SDS011;58554;52.006;5.926;2024-02-21T14:37:30;9.37;;;3.67;;
70908;SDS011;58554;52.006;5.926;2024-02-21T14:39:56;9.95;;;3.60;;
70908;SDS011;58554;52.006;5.926;2024-02-21T14:42:23;6.73;;;3.37;;